Latest Weather Observations for Butlers Gorge

IDT60801

Issued at 8:32 pm EST Sunday 25 June 2017 (issued every 30 minutes, with the page automatically refreshed every 10 minutes)

About weather observations | Map of weather stations | Latest weather observations for TAS | Other Formats
Station Details ID: 096003 Name: BUTLERS GORGE Lat: -42.28 Lon: 146.28 Height: 667.0 m
Data from the previous 72 hours. | See also: Recent months at Butlers Gorge
Date/Time
EST
Temp
°C
App
Temp
°C
Dew
Point
°C
Rel
Hum
%
Delta-T
°C
Wind Press
QNH
hPa
Press
MSL
hPa
Rain since
9am
mm
Dir  Spd
km/h
Gust
km/h
Spd
kts
Gust
kts
25/08:30pm 3.3 -1.8 1.0 85 0.9 WSW 17 32 9 17 - - 11.8
25/08:00pm 3.1 -0.8 1.3 88 0.7 WSW 11 17 6 9 - - 11.6
25/07:30pm 3.1 -1.6 1.0 86 0.8 WSW 15 26 8 14 - - 11.6
25/07:00pm 3.4 -0.5 1.4 87 0.8 WSW 11 17 6 9 - - 11.0
25/06:30pm 3.4 -0.5 1.4 87 0.8 WSW 11 19 6 10 - - 10.6
25/06:00pm 3.3 -0.2 1.5 88 0.7 W 9 17 5 9 - - 10.2
25/05:30pm 3.3 -0.2 1.3 87 0.8 W 9 17 5 9 - - 9.6
25/05:00pm 4.1 -0.1 1.5 83 1.1 WSW 13 22 7 12 - - 8.4
25/04:30pm 4.1 -0.1 1.6 84 1.0 W 13 30 7 16 - - 8.2
25/04:00pm 4.8 1.0 1.5 79 1.4 WSW 11 22 6 12 - - 7.8
25/03:30pm 4.8 0.5 1.3 78 1.4 W 13 28 7 15 - - 7.8
25/03:00pm 5.0 0.5 2.2 82 1.2 WSW 15 30 8 16 - - 7.8
25/02:30pm 4.7 1.8 2.6 86 0.9 W 7 17 4 9 - - 7.6
25/02:00pm 4.5 1.6 2.7 88 0.8 WSW 7 17 4 9 - - 7.2
25/01:30pm 4.8 2.2 3.0 88 0.8 W 6 15 3 8 - - 6.0
25/01:00pm 4.7 1.1 2.7 87 0.8 WNW 11 17 6 9 - - 5.2
25/12:30pm 4.9 1.3 2.9 87 0.9 WNW 11 22 6 12 - - 3.6
25/12:00pm 4.6 0.9 2.6 87 0.8 WNW 11 26 6 14 - - 2.8
25/11:30am 4.4 0.3 2.3 86 0.9 WNW 13 28 7 15 - - 1.8
25/11:00am 4.8 0.3 2.3 84 1.1 WNW 15 39 8 21 - - 1.4
25/10:30am 4.7 -0.6 2.1 83 1.1 WNW 19 32 10 17 - - 0.8
25/10:00am 5.0 0.5 2.0 81 1.3 NW 15 33 8 18 - - 0.2
25/09:30am 4.9 0.8 2.3 83 1.1 NNW 13 30 7 16 - - 0.2
25/09:00am 4.9 0.4 2.4 84 1.1 NNW 15 32 8 17 - - 10.2
25/08:30am 4.7 0.6 2.1 83 1.1 NW 13 22 7 12 - - 10.2
25/08:00am 4.3 1.0 2.2 86 0.9 NNW 9 17 5 9 - - 10.2
25/07:30am 4.2 1.2 2.1 86 0.9 WNW 7 17 4 9 - - 10.2
25/07:00am 4.0 0.6 1.9 86 0.9 NW 9 17 5 9 - - 10.0
25/06:30am 4.0 0.2 2.0 87 0.8 NW 11 28 6 15 - - 9.8
25/06:00am 4.0 -0.1 2.0 87 0.8 NW 13 28 7 15 - - 9.6
25/05:30am 4.0 -0.1 2.2 88 0.7 NW 13 24 7 13 - - 9.4
25/05:00am 3.9 -0.3 1.9 87 0.8 NW 13 24 7 13 - - 9.0
25/04:30am 4.0 -0.5 1.9 86 0.9 NW 15 26 8 14 - - 8.6
25/04:00am 3.9 -0.7 1.8 86 0.9 NW 15 26 8 14 - - 8.4
25/03:30am 3.7 -0.1 1.7 87 0.8 NW 11 19 6 10 - - 8.0
25/03:00am 3.9 -0.7 1.8 86 0.9 WNW 15 30 8 16 - - 7.8
25/02:30am 3.7 0.3 2.1 89 0.7 W 9 17 5 9 - - 7.6
25/02:00am 3.6 -0.6 1.8 88 0.7 WNW 13 24 7 13 - - 7.6
25/01:30am 3.5 -0.3 2.0 90 0.6 WNW 11 22 6 12 - - 7.4
25/01:00am 3.4 0.0 2.1 91 0.5 WNW 9 19 5 10 - - 7.2
25/12:30am 3.2 -0.6 1.7 90 0.6 WNW 11 20 6 11 - - 7.2
25/12:00am 3.2 -0.6 1.6 89 0.7 WNW 11 20 6 11 - - 7.2
 
Date/Time
EST
Temp
°C
App
Temp
°C
Dew
Point
°C
Rel
Hum
%
Delta-T
°C
Wind Press
QNH
hPa
Press
MSL
hPa
Rain since
9am
mm
Dir  Spd
km/h
Gust
km/h
Spd
kts
Gust
kts
24/11:30pm 3.1 -0.3 1.6 90 0.6 WNW 9 19 5 10 - - 7.2
24/11:00pm 3.0 -0.4 1.7 91 0.5 W 9 19 5 10 - - 7.0
24/10:30pm 2.8 -0.3 1.6 92 0.5 WNW 7 13 4 7 - - 7.0
24/10:00pm 2.7 -0.4 1.4 91 0.5 W 7 15 4 8 - - 6.8
24/09:30pm 2.7 -0.4 1.5 92 0.5 W 7 17 4 9 - - 6.8
24/09:00pm 2.5 -0.6 1.5 93 0.4 W 7 17 4 9 - - 6.8
24/08:30pm 2.5 -0.4 1.5 93 0.4 W 6 11 3 6 - - 6.6
24/08:00pm 2.2 -1.0 1.0 92 0.5 WSW 7 13 4 7 - - 6.6
24/07:30pm 2.2 -0.8 1.0 92 0.5 WSW 6 9 3 5 - - 6.6
24/07:00pm 2.2 -0.4 1.0 92 0.5 WSW 4 9 2 5 - - 6.4
24/06:30pm 2.3 -0.8 1.1 92 0.5 WSW 7 13 4 7 - - 6.2
24/06:00pm 2.2 -0.8 0.9 91 0.5 WSW 6 11 3 6 - - 6.2
24/05:30pm 2.2 -1.4 0.7 90 0.6 WNW 9 19 5 10 - - 6.0
24/05:00pm 2.3 -1.3 0.8 90 0.6 SW 9 11 5 6 - - 6.0
24/04:30pm 2.5 -0.7 0.9 89 0.6 WSW 7 13 4 7 - - 5.8
24/04:00pm 2.6 -0.9 1.0 89 0.6 W 9 17 5 9 - - 5.6
24/03:30pm 2.5 -0.7 0.9 89 0.6 WSW 7 11 4 6 - - 5.6
24/03:00pm 2.3 -1.3 0.5 88 0.7 W 9 15 5 8 - - 5.6
24/02:30pm 2.5 -1.1 0.4 86 0.8 WSW 9 17 5 9 - - 5.4
24/02:00pm 2.7 -1.7 0.6 86 0.8 WNW 13 20 7 11 - - 5.4
24/01:30pm 2.9 -1.1 0.3 83 1.0 W 11 20 6 11 - - 5.2
24/01:00pm 3.2 -1.7 -0.6 76 1.5 W 15 24 8 13 - - 5.2
24/12:30pm 3.2 -0.9 -0.4 77 1.4 W 11 19 6 10 - - 5.2
24/12:00pm 3.2 -0.5 -0.1 79 1.3 WSW 9 19 5 10 - - 5.2
24/11:30am 2.2 -1.5 -0.1 85 0.9 W 9 13 5 7 - - 5.0
24/11:00am 1.8 -2.0 -0.4 85 0.8 W 9 17 5 9 - - 4.6
24/10:30am 2.6 -2.5 -1.6 74 1.6 SW 15 24 8 13 - - 3.6
24/10:00am 2.6 -2.8 -1.0 77 1.4 WSW 17 32 9 17 - - 1.2
24/09:30am 1.8 -2.8 -1.1 81 1.1 WSW 13 24 7 13 - - 0.0
24/09:00am 1.0 -3.2 -0.9 87 0.7 WSW 11 20 6 11 - - 12.2
24/08:30am 1.4 -3.3 -1.5 81 1.1 WSW 13 32 7 17 - - 12.2
24/08:00am 1.0 -4.0 -1.2 85 0.8 WSW 15 26 8 14 - - 12.2
24/07:30am 1.2 -3.9 -1.9 80 1.1 WSW 15 24 8 13 - - 12.2
24/07:00am 1.0 -3.3 -1.9 81 1.1 W 11 20 6 11 - - 12.2
24/06:30am 0.5 -4.6 -1.6 86 0.8 WSW 15 28 8 15 - - 12.2
24/06:00am 0.7 -3.2 -1.5 85 0.8 W 9 17 5 9 - - 12.2
24/05:30am 1.4 -3.8 -2.5 75 1.4 W 15 28 8 15 - - 12.2
24/05:00am 1.1 -3.7 -2.5 77 1.4 WSW 13 20 7 11 - - 12.2
24/04:30am 1.0 -3.4 -2.2 79 1.2 W 11 24 6 13 - - 12.2
24/04:00am 0.9 -3.1 -2.2 80 1.2 W 9 20 5 11 - - 12.2
24/03:30am 0.7 -3.3 -2.3 80 1.1 WSW 9 26 5 14 - - 12.2
24/03:00am 0.6 -4.2 -2.8 78 1.2 WSW 13 22 7 12 - - 12.2
24/02:30am 0.1 -4.7 -2.6 82 1.0 WSW 13 22 7 12 - - 12.2
24/02:00am -0.1 -4.6 -3.6 77 1.2 WNW 11 28 6 15 - - 12.2
24/01:30am 0.4 -4.1 -3.3 76 1.3 WSW 11 24 6 13 - - 12.2
24/01:00am -0.1 -4.5 -2.6 83 0.9 WSW 11 19 6 10 - - 12.2
24/12:30am -0.4 -5.5 -1.8 90 0.5 WSW 15 33 8 18 - - 12.2
24/12:00am 0.2 -3.9 -3.0 79 1.1 SW 9 22 5 12 - - 12.2
 
Date/Time
EST
Temp
°C
App
Temp
°C
Dew
Point
°C
Rel
Hum
%
Delta-T
°C
Wind Press
QNH
hPa
Press
MSL
hPa
Rain since
9am
mm
Dir  Spd
km/h
Gust
km/h
Spd
kts
Gust
kts
23/11:30pm 0.4 -5.2 -3.3 76 1.3 SW 17 41 9 22 - - 12.2
23/11:00pm 0.5 -3.4 -1.4 87 0.7 WSW 9 17 5 9 - - 12.2
23/10:30pm 0.2 -4.1 -1.4 89 0.6 WSW 11 20 6 11 - - 12.2
23/10:00pm 0.5 -4.1 -1.4 87 0.7 WSW 13 39 7 21 - - 12.2
23/09:30pm 1.3 -3.5 -2.3 77 1.3 WSW 13 24 7 13 - - 12.2
23/09:00pm 1.3 -3.4 -1.9 79 1.2 WSW 13 24 7 13 - - 12.2
23/08:30pm 1.3 -3.8 -1.8 80 1.1 WSW 15 30 8 16 - - 12.2
23/08:00pm 1.7 -3.0 -1.9 77 1.3 WSW 13 32 7 17 - - 12.2
23/07:30pm 1.5 -4.0 -1.9 78 1.2 WSW 17 35 9 19 - - 12.2
23/07:00pm 2.0 -3.4 -1.4 78 1.3 WSW 17 39 9 21 - - 12.2
23/06:30pm 1.6 -3.3 -0.8 84 0.9 WSW 15 26 8 14 - - 12.0
23/06:00pm 1.6 -2.9 -0.3 87 0.7 WSW 13 26 7 14 - - 11.8
23/05:30pm 2.5 -1.9 0.4 86 0.8 WSW 13 30 7 16 - - 10.8
23/05:00pm 3.6 -2.0 1.3 85 0.9 WSW 20 33 11 18 - - 9.6
23/04:30pm 5.3 1.7 3.2 86 0.9 WSW 11 22 6 12 - - 8.6
23/04:00pm 5.8 1.9 3.3 84 1.1 W 13 35 7 19 - - 8.2
23/03:30pm 5.5 1.1 2.8 83 1.2 W 15 32 8 17 - - 7.6
23/03:00pm 5.3 1.8 3.3 87 0.9 WSW 11 20 6 11 - - 6.8
23/02:30pm 5.6 1.7 3.3 85 1.0 WNW 13 33 7 18 - - 5.2
23/02:00pm 6.6 2.5 4.1 84 1.1 W 15 32 8 17 - - 2.8
23/01:30pm 7.6 2.5 4.0 78 1.6 WNW 20 41 11 22 - - 1.4
23/01:10pm 7.7 1.0 3.7 76 1.8 WNW 28 54 15 29 - - 1.2
23/01:00pm 8.1 3.0 4.1 76 1.8 WNW 20 43 11 23 - - 1.2
23/12:30pm 7.0 1.9 4.1 82 1.3 WNW 20 46 11 25 - - 1.0
23/12:00pm 7.2 2.1 4.2 81 1.4 NW 20 37 11 20 - - 0.6
23/11:30am 7.6 3.0 3.6 76 1.8 NW 17 30 9 16 - - 0.2
23/11:00am 7.6 2.9 3.1 73 2.0 WNW 17 39 9 21 - - 0.2
23/10:30am 7.4 1.8 3.6 77 1.7 NW 22 44 12 24 - - 0.0
23/10:00am 7.2 2.2 3.8 79 1.5 NW 19 41 10 22 - - 0.0
23/09:30am 7.4 3.8 3.1 74 1.9 WNW 11 20 6 11 - - 0.0
23/09:00am 7.3 2.0 2.8 73 2.0 NW 20 39 11 21 - - 3.6
23/08:30am 7.3 2.6 3.2 75 1.8 NW 17 30 9 16 - - 3.6
23/08:00am 7.0 3.0 2.7 74 1.9 NW 13 32 7 17 - - 3.6
23/07:30am 6.9 2.2 3.2 77 1.6 WNW 17 32 9 17 - - 3.6
23/07:00am 6.8 2.9 3.4 79 1.5 WNW 13 33 7 18 - - 3.4
23/06:30am 6.7 1.7 3.7 81 1.3 WNW 19 35 10 19 - - 3.4
23/06:00am 6.5 3.6 4.5 87 0.9 WSW 9 22 5 12 - - 3.4
23/05:30am 7.0 3.9 5.5 90 0.7 WSW 11 20 6 11 - - 3.0
23/05:00am 5.0 3.7 4.0 93 0.4 CALM 0 9 0 5 - - 2.4
23/04:30am 4.8 3.0 3.5 91 0.6 SSE 2 7 1 4 - - 1.6
23/04:00am 4.9 2.7 3.2 89 0.7 SSW 4 7 2 4 - - 0.6
23/03:30am 4.5 2.6 2.7 88 0.8 SSE 2 7 1 4 - - 0.4
23/03:00am 4.4 2.7 1.8 83 1.1 CALM 0 0 0 0 - - 0.4
23/02:30am 5.0 2.1 1.7 79 1.4 W 6 9 3 5 - - 0.4
23/02:00am 6.4 2.7 2.3 75 1.8 WNW 11 19 6 10 - - 0.4
23/01:30am 6.5 2.8 2.4 75 1.8 W 11 19 6 10 - - 0.4
23/01:00am 6.6 2.6 2.9 77 1.6 WNW 13 28 7 15 - - 0.4
23/12:30am 6.3 2.4 3.3 81 1.3 W 13 26 7 14 - - 0.4
23/12:00am 6.0 2.6 4.0 87 0.9 W 11 19 6 10 - - 0.4
 
Date/Time
EST
Temp
°C
App
Temp
°C
Dew
Point
°C
Rel
Hum
%
Delta-T
°C
Wind Press
QNH
hPa
Press
MSL
hPa
Rain since
9am
mm
Dir  Spd
km/h
Gust
km/h
Spd
kts
Gust
kts
22/11:30pm 6.0 2.8 3.3 83 1.2 W 9 19 5 10 - - 0.4
22/11:00pm 5.9 3.1 2.9 81 1.3 WNW 7 17 4 9 - - 0.4
22/10:30pm 5.5 2.2 2.7 82 1.2 WSW 9 15 5 8 - - 0.4
22/10:00pm 5.5 2.2 2.5 81 1.3 WSW 9 22 5 12 - - 0.4
22/09:30pm 5.6 1.1 2.4 80 1.4 W 15 28 8 15 - - 0.4
22/09:00pm 5.6 1.4 1.9 77 1.6 WSW 13 22 7 12 - - 0.4

Other Formats:

Comma delimited format used in spreadsheet applications
http://www.bom.gov.au/fwo/IDT60801/IDT60801.94959.axf

JavaScript Object Notation format (JSON) in row-major order
http://www.bom.gov.au/fwo/IDT60801/IDT60801.94959.json